Time;durP1;ratioP1;P1;durP2;ratioP2;P2;SDS_P1;SDS_P2;PMS_P1;PMS_P2;Temp;Humidity;BMP_temperature;BMP_pressure;BME280_temperature;BME280_humidity;BME280_pressure;Samples;Min_cycle;Max_cycle;Signal;HPM_P1;HPM_P2
2021/05/04 00:00:02;;;;;;;;;;;;;;;8.77;49.08;100257.09;4424610;32;33136;-90
2021/05/04 00:02:34;;;;;;;;;;;;;;;8.68;49.33;100257.81;4429965;32;32999;-89
2021/05/04 00:05:02;;;;;;;;;;;;;;;8.70;49.21;100250.63;4429961;32;33423;-89
2021/05/04 00:07:29;;;;;;;;;;;;;;;8.44;49.89;100250.00;4423276;32;34303;-89
2021/05/04 00:09:56;;;;;;;;;;;;;;;8.36;49.94;100253.34;4423041;32;33517;-91
2021/05/04 00:12:23;;;;;;;;;;;;;;;8.63;49.57;100250.22;4398416;32;32385;-89
2021/05/04 00:14:51;;;;;;;;;;;;;;;8.74;49.36;100252.91;4435210;32;33986;-90
2021/05/04 00:17:18;;;;;;;;;;;;;;;8.56;49.82;100254.34;4412086;32;34830;-88
2021/05/04 00:19:47;;;;;;;;;;;;;;;8.72;49.56;100254.81;4415697;32;34931;-84
2021/05/04 00:22:14;;;;;;;;;;;;;;;8.41;49.79;100252.06;4412858;32;34016;-85
2021/05/04 00:24:41;;;;;;;;;;;;;;;8.69;49.35;100243.63;4438445;32;34078;-83
2021/05/04 00:27:08;;;;;;;;;;;;;;;8.69;49.75;100251.59;4427577;32;34585;-88
2021/05/04 00:29:36;;;;;;;;;;;;;;;8.66;49.83;100247.34;4423748;32;35154;-88
2021/05/04 00:32:03;;;;;;;;;;;;;;;8.84;48.92;100245.03;4440302;32;33120;-91
2021/05/04 00:34:31;;;;;;;;;;;;;;;8.91;48.65;100243.59;4438566;32;34332;-87
2021/05/04 00:36:58;;;;;;;;;;;;;;;8.89;48.41;100253.50;4424644;32;33912;-90
2021/05/04 00:39:33;;;;;;;;;;;;;;;8.88;48.38;100239.38;4420082;32;33831;-89
2021/05/04 00:42:02;;;;;;;;;;;;;;;8.71;49.26;100245.16;4432198;32;33182;-82
2021/05/04 00:44:30;;;;;;;;;;;;;;;8.82;48.75;100237.19;4422151;32;35012;-83
2021/05/04 00:46:57;;;;;;;;;;;;;;;8.79;48.92;100240.09;4425193;32;35883;-91
2021/05/04 00:49:25;;;;;;;;;;;;;;;8.61;49.84;100236.25;4423578;32;33120;-85
2021/05/04 00:51:52;;;;;;;;;;;;;;;8.64;49.70;100232.53;4427411;32;32601;-88
2021/05/04 00:54:19;;;;;;;;;;;;;;;8.82;49.00;100233.72;4412689;32;33769;-89
2021/05/04 00:56:47;;;;;;;;;;;;;;;8.75;49.41;100230.72;4426978;32;34833;-89
2021/05/04 00:59:14;;;;;;;;;;;;;;;8.60;49.76;100223.13;4423534;32;35119;-87
2021/05/04 01:01:41;;;;;;;;;;;;;;;8.70;49.64;100230.22;4424710;32;33215;-87
2021/05/04 01:04:08;;;;;;;;;;;;;;;8.72;49.37;100230.13;4413099;32;34534;-89
2021/05/04 01:06:36;;;;;;;;;;;;;;;8.69;49.25;100231.19;4415793;32;35027;-86
2021/05/04 01:09:03;;;;;;;;;;;;;;;8.66;49.40;100233.25;4435356;32;35259;-85
2021/05/04 01:11:30;;;;;;;;;;;;;;;8.56;49.72;100229.63;4412918;32;31930;-88
2021/05/04 01:13:58;;;;;;;;;;;;;;;8.52;49.81;100231.69;4395869;32;33135;-90
2021/05/04 01:16:25;;;;;;;;;;;;;;;8.55;49.44;100231.47;4423735;32;35736;-86
2021/05/04 01:18:53;;;;;;;;;;;;;;;8.47;49.74;100229.53;4423394;32;34445;-89
2021/05/04 01:21:20;;;;;;;;;;;;;;;8.44;49.70;100230.59;4435133;32;32358;-90
2021/05/04 01:23:47;;;;;;;;;;;;;;;8.43;50.05;100228.91;4411867;32;33826;-90
2021/05/04 01:26:14;;;;;;;;;;;;;;;8.38;50.15;100233.72;4439202;32;35197;-89
2021/05/04 01:28:41;;;;;;;;;;;;;;;8.19;50.98;100222.03;4420366;32;32991;-91
2021/05/04 01:31:09;;;;;;;;;;;;;;;8.30;50.66;100222.88;4437734;32;33417;-90
2021/05/04 01:33:36;;;;;;;;;;;;;;;8.31;50.67;100223.72;4409981;32;33974;-89
2021/05/04 01:36:03;;;;;;;;;;;;;;;8.25;51.02;100224.19;4425641;32;35040;-86
2021/05/04 01:38:31;;;;;;;;;;;;;;;8.19;51.12;100222.03;4431790;32;33811;-88
2021/05/04 01:40:59;;;;;;;;;;;;;;;8.19;51.33;100222.88;4400226;32;32192;-90
2021/05/04 01:43:26;;;;;;;;;;;;;;;8.19;51.10;100214.91;4424531;32;34107;-84
2021/05/04 01:45:53;;;;;;;;;;;;;;;8.20;51.00;100216.59;4425616;32;35044;-85
2021/05/04 01:48:20;;;;;;;;;;;;;;;8.13;51.27;100211.88;4424767;32;34358;-87
2021/05/04 01:50:47;;;;;;;;;;;;;;;8.04;51.42;100205.50;4437713;32;32358;-86
2021/05/04 01:53:14;;;;;;;;;;;;;;;8.06;51.74;100202.72;4439240;32;34815;-87
2021/05/04 01:55:42;;;;;;;;;;;;;;;8.00;51.83;100188.12;4424528;32;34980;-88
2021/05/04 01:58:09;;;;;;;;;;;;;;;8.10;51.64;100201.53;4436077;32;34511;-88
2021/05/04 02:00:36;;;;;;;;;;;;;;;7.95;52.37;100192.09;4426146;32;32427;-89
2021/05/04 02:03:03;;;;;;;;;;;;;;;8.01;52.25;100194.28;4419301;32;32516;-82
2021/05/04 02:05:30;;;;;;;;;;;;;;;7.98;52.37;100194.50;4442589;32;35546;-89
2021/05/04 02:07:57;;;;;;;;;;;;;;;7.98;52.50;100190.06;4426956;32;34221;-89
2021/05/04 02:10:25;;;;;;;;;;;;;;;7.99;52.70;100189.09;4423301;32;33691;-89
2021/05/04 02:12:53;;;;;;;;;;;;;;;8.17;52.09;100184.16;4423834;32;33891;-88
2021/05/04 02:15:20;;;;;;;;;;;;;;;8.05;52.46;100193.06;4408980;32;34047;-89
2021/05/04 02:17:47;;;;;;;;;;;;;;;8.03;52.65;100189.69;4425404;32;34443;-92
2021/05/04 02:20:15;;;;;;;;;;;;;;;8.06;52.68;100192.09;4434980;32;34089;-89
2021/05/04 02:22:43;;;;;;;;;;;;;;;8.08;52.86;100191.03;4440186;32;33738;-88
2021/05/04 02:25:11;;;;;;;;;;;;;;;8.16;53.21;100198.38;4408036;32;35102;-88
2021/05/04 02:27:39;;;;;;;;;;;;;;;8.24;52.36;100194.22;4423444;32;34515;-85
2021/05/04 02:30:06;;;;;;;;;;;;;;;8.16;52.62;100191.28;4434957;32;33001;-83
2021/05/04 02:32:35;;;;;;;;;;;;;;;8.21;52.18;100186.47;4436269;32;33452;-90
2021/05/04 02:37:46;;;;;;;;;;;;;;;8.19;52.67;100191.06;4401814;27;34934;-76
2021/05/04 02:40:14;;;;;;;;;;;;;;;7.99;53.58;100190.88;4391602;32;32959;-77
2021/05/04 02:42:41;;;;;;;;;;;;;;;8.05;53.42;100182.47;4416391;32;33828;-76
2021/05/04 02:45:08;;;;;;;;;;;;;;;8.10;53.00;100186.44;4401303;32;35230;-76
2021/05/04 02:47:35;;;;;;;;;;;;;;;8.13;53.37;100177.44;4411410;32;34869;-77
2021/05/04 02:50:02;;;;;;;;;;;;;;;8.25;52.94;100184.44;4423354;32;34681;-76
2021/05/04 02:52:29;;;;;;;;;;;;;;;8.18;52.65;100181.41;4410894;32;34782;-76
2021/05/04 02:54:57;;;;;;;;;;;;;;;8.20;52.44;100182.16;4416371;32;35901;-76
2021/05/04 02:57:24;;;;;;;;;;;;;;;8.16;52.41;100178.03;4406484;32;33463;-77
2021/05/04 02:59:51;;;;;;;;;;;;;;;7.95;53.10;100178.84;4426581;32;32841;-76
2021/05/04 03:02:18;;;;;;;;;;;;;;;7.92;53.08;100176.44;4413777;32;35167;-76
2021/05/04 03:04:45;;;;;;;;;;;;;;;8.03;52.73;100169.34;4415804;32;36077;-77
2021/05/04 03:07:11;;;;;;;;;;;;;;;7.92;53.03;100171.16;4401987;32;34029;-76
2021/05/04 03:09:40;;;;;;;;;;;;;;;8.00;52.69;100168.75;4411293;32;32552;-76
2021/05/04 03:12:07;;;;;;;;;;;;;;;8.00;52.61;100164.28;4425907;32;33913;-77
2021/05/04 03:14:34;;;;;;;;;;;;;;;7.98;52.77;100165.34;4404727;32;35147;-76
2021/05/04 03:17:01;;;;;;;;;;;;;;;7.90;52.99;100160.66;4409857;32;34374;-77
2021/05/04 03:19:28;;;;;;;;;;;;;;;7.91;52.99;100162.34;4405139;32;33287;-76
2021/05/04 03:21:55;;;;;;;;;;;;;;;7.85;53.37;100162.81;4411387;32;35710;-76
2021/05/04 03:24:22;;;;;;;;;;;;;;;7.77;53.50;100162.59;4407312;32;35076;-76
2021/05/04 03:26:49;;;;;;;;;;;;;;;7.51;54.20;100162.87;4405363;32;35499;-77
2021/05/04 03:29:16;;;;;;;;;;;;;;;7.44;54.53;100162.50;4420493;32;32996;-76
2021/05/04 03:31:43;;;;;;;;;;;;;;;7.51;54.62;100165.50;4415477;32;33988;-76
2021/05/04 03:34:10;;;;;;;;;;;;;;;7.49;54.47;100164.78;4409555;32;36070;-77
2021/05/04 03:36:37;;;;;;;;;;;;;;;7.61;54.24;100161.19;4429806;32;34008;-76
2021/05/04 03:39:04;;;;;;;;;;;;;;;7.46;54.88;100165.03;4409727;32;32532;-77
2021/05/04 03:41:31;;;;;;;;;;;;;;;7.61;54.63;100167.34;4399257;32;33831;-77
2021/05/04 03:43:58;;;;;;;;;;;;;;;7.67;54.27;100166.03;4412213;32;36001;-77
2021/05/04 03:46:26;;;;;;;;;;;;;;;7.65;54.16;100160.84;4400892;32;32853;-76
2021/05/04 03:48:53;;;;;;;;;;;;;;;7.64;54.18;100163.63;4416987;32;32465;-76
2021/05/04 03:51:20;;;;;;;;;;;;;;;7.65;54.09;100154.72;4414105;32;33835;-76
2021/05/04 03:53:47;;;;;;;;;;;;;;;7.63;54.52;100159.31;4407060;32;34515;-77
2021/05/04 03:56:14;;;;;;;;;;;;;;;7.53;54.78;100158.28;4408633;32;34499;-76
2021/05/04 03:58:41;;;;;;;;;;;;;;;7.63;54.76;100156.66;4423661;32;32331;-76
2021/05/04 04:01:08;;;;;;;;;;;;;;;7.61;54.84;100162.06;4397134;32;33490;-76
2021/05/04 04:03:35;;;;;;;;;;;;;;;7.73;54.55;100149.69;4390242;32;34333;-76
2021/05/04 04:06:02;;;;;;;;;;;;;;;7.74;54.65;100144.25;4400859;32;34633;-77
2021/05/04 04:08:29;;;;;;;;;;;;;;;7.77;54.53;100149.34;4406452;32;32943;-77
2021/05/04 04:10:56;;;;;;;;;;;;;;;7.79;54.47;100151.84;4410325;32;33212;-76
2021/05/04 04:13:23;;;;;;;;;;;;;;;7.70;55.06;100142.81;4415261;32;35366;-76
2021/05/04 04:15:50;;;;;;;;;;;;;;;7.79;54.97;100136.81;4414802;32;35051;-77
2021/05/04 04:18:17;;;;;;;;;;;;;;;7.83;54.96;100140.91;4410236;32;32728;-77
2021/05/04 04:20:44;;;;;;;;;;;;;;;7.86;55.24;100137.19;4405332;32;32257;-76
2021/05/04 04:23:11;;;;;;;;;;;;;;;7.78;55.82;100131.63;4398467;32;35922;-77
2021/05/04 04:25:38;;;;;;;;;;;;;;;7.70;56.28;100136.66;4413673;32;35063;-77
2021/05/04 04:28:05;;;;;;;;;;;;;;;7.84;56.17;100139.13;4418035;32;32840;-76
2021/05/04 04:30:32;;;;;;;;;;;;;;;7.98;55.83;100136.22;4391710;32;34210;-76
2021/05/04 04:32:59;;;;;;;;;;;;;;;8.11;55.54;100136.97;4405024;32;35374;-77
2021/05/04 04:35:26;;;;;;;;;;;;;;;8.31;54.92;100134.44;4413218;32;34145;-76
2021/05/04 04:37:53;;;;;;;;;;;;;;;8.39;54.51;100132.03;4400509;32;33984;-77
2021/05/04 04:40:20;;;;;;;;;;;;;;;8.33;55.00;100144.94;4405634;32;33753;-76
2021/05/04 04:42:47;;;;;;;;;;;;;;;8.33;55.19;100142.28;4428244;32;34745;-76
2021/05/04 04:45:14;;;;;;;;;;;;;;;8.65;54.09;100142.25;4420829;32;33956;-76
2021/05/04 04:47:41;;;;;;;;;;;;;;;8.54;54.39;100142.25;4389288;32;33727;-77
2021/05/04 04:50:08;;;;;;;;;;;;;;;8.66;54.48;100133.31;4413642;32;34498;-76
2021/05/04 04:52:35;;;;;;;;;;;;;;;8.91;53.58;100125.03;4402039;32;34450;-77
2021/05/04 04:55:03;;;;;;;;;;;;;;;9.01;53.26;100123.31;4413347;32;35550;-76
2021/05/04 04:57:30;;;;;;;;;;;;;;;9.15;52.93;100125.66;4398927;32;32830;-77
2021/05/04 04:59:57;;;;;;;;;;;;;;;9.19;52.89;100120.94;4398437;32;33765;-77
2021/05/04 05:02:24;;;;;;;;;;;;;;;9.17;53.61;100123.72;4391580;32;33874;-76
2021/05/04 05:04:51;;;;;;;;;;;;;;;9.40;52.82;100112.03;4394714;32;33694;-76
2021/05/04 05:07:19;;;;;;;;;;;;;;;9.52;52.61;100116.28;4402035;32;33539;-77
2021/05/04 05:09:46;;;;;;;;;;;;;;;9.65;52.30;100119.59;4415635;32;32610;-77
2021/05/04 05:12:13;;;;;;;;;;;;;;;9.75;52.48;100117.00;4404040;32;35041;-77
2021/05/04 05:14:41;;;;;;;;;;;;;;;9.82;52.46;100110.19;4424830;32;34599;-76
2021/05/04 05:17:10;;;;;;;;;;;;;;;9.90;52.36;100107.72;4417600;32;33023;-76
2021/05/04 05:19:38;;;;;;;;;;;;;;;10.10;52.04;100115.66;4411115;32;34080;-76
2021/05/04 05:22:05;;;;;;;;;;;;;;;10.17;52.33;100108.84;4403298;32;35628;-75
2021/05/04 05:24:33;;;;;;;;;;;;;;;10.16;52.91;100104.50;4415301;32;34575;-77
2021/05/04 05:27:00;;;;;;;;;;;;;;;10.18;53.25;100107.88;4415339;32;34954;-76
2021/05/04 05:29:30;;;;;;;;;;;;;;;9.84;54.15;100098.44;4426602;32;33803;-76
2021/05/04 05:31:57;;;;;;;;;;;;;;;10.39;53.61;100097.16;4409061;32;171149;-76
2021/05/04 05:34:24;;;;;;;;;;;;;;;10.58;53.12;100098.03;4386674;32;34680;-76
2021/05/04 05:36:51;;;;;;;;;;;;;;;10.85;52.17;100090.25;4399187;32;32951;-76
2021/05/04 05:39:19;;;;;;;;;;;;;;;10.68;52.59;100088.25;4402399;32;33630;-76
2021/05/04 05:41:46;;;;;;;;;;;;;;;10.76;53.20;100084.91;4423578;32;35286;-77
2021/05/04 05:44:13;;;;;;;;;;;;;;;11.29;51.52;100087.03;4404999;32;33058;-77
2021/05/04 05:46:41;;;;;;;;;;;;;;;10.92;53.10;100083.38;4414074;32;32614;-77
2021/05/04 05:49:09;;;;;;;;;;;;;;;11.07;52.60;100078.47;4400202;32;34637;-76
2021/05/04 05:51:37;;;;;;;;;;;;;;;11.12;53.04;100077.06;4409113;32;35473;-76
2021/05/04 05:54:04;;;;;;;;;;;;;;;11.42;53.05;100072.41;4414901;32;34318;-77
2021/05/04 05:56:31;;;;;;;;;;;;;;;11.91;50.94;100082.00;4417455;32;32708;-76
2021/05/04 05:58:58;;;;;;;;;;;;;;;11.91;51.28;100079.34;4400283;32;33239;-77
2021/05/04 06:01:25;;;;;;;;;;;;;;;12.37;49.83;100079.28;4399135;32;34340;-78
2021/05/04 06:03:53;;;;;;;;;;;;;;;12.34;50.18;100080.41;4401149;32;34314;-77
2021/05/04 06:06:20;;;;;;;;;;;;;;;12.17;50.88;100070.53;4397099;32;33093;-77
2021/05/04 06:08:47;;;;;;;;;;;;;;;12.30;51.42;100070.19;4405831;32;33943;-77
2021/05/04 06:11:14;;;;;;;;;;;;;;;12.25;53.53;100067.09;4416414;32;35826;-78
2021/05/04 06:13:41;;;;;;;;;;;;;;;12.85;51.01;100061.13;4415324;32;34971;-77
2021/05/04 06:16:08;;;;;;;;;;;;;;;13.14;49.96;100056.41;4408332;32;32861;-77
2021/05/04 06:18:35;;;;;;;;;;;;;;;13.16;50.18;100047.25;4418182;32;33969;-77
2021/05/04 06:21:02;;;;;;;;;;;;;;;13.18;50.40;100047.94;4416788;32;34791;-77
2021/05/04 06:23:29;;;;;;;;;;;;;;;13.23;49.50;100042.94;4418227;32;34551;-77
2021/05/04 06:25:56;;;;;;;;;;;;;;;13.46;49.09;100045.97;4415771;32;33182;-78
2021/05/04 06:28:23;;;;;;;;;;;;;;;13.00;49.92;100044.44;4427725;32;33823;-78
2021/05/04 06:30:51;;;;;;;;;;;;;;;13.50;49.29;100040.16;4387077;32;35475;-78
2021/05/04 06:33:18;;;;;;;;;;;;;;;13.71;47.85;100029.94;4412519;32;34255;-77
2021/05/04 06:35:48;;;;;;;;;;;;;;;13.91;48.23;100030.53;4382568;32;32585;-77
2021/05/04 06:38:16;;;;;;;;;;;;;;;14.06;48.69;100032.44;4421027;32;34750;-78
2021/05/04 06:40:45;;;;;;;;;;;;;;;13.93;48.75;100034.75;4407693;32;35049;-77
2021/05/04 06:43:12;;;;;;;;;;;;;;;13.19;49.85;100033.59;4426936;32;34444;-76
2021/05/04 06:45:39;;;;;;;;;;;;;;;13.75;48.64;100039.31;4423231;32;33377;-77
2021/05/04 06:48:06;;;;;;;;;;;;;;;14.07;48.20;100030.63;4421640;32;33802;-78
2021/05/04 06:50:34;;;;;;;;;;;;;;;14.49;46.07;100033.13;4418337;32;34946;-78
2021/05/04 06:53:00;;;;;;;;;;;;;;;14.81;45.69;100027.88;4408685;32;34484;-77
2021/05/04 06:55:28;;;;;;;;;;;;;;;14.95;45.12;100029.06;4404389;32;33195;-76
2021/05/04 06:57:55;;;;;;;;;;;;;;;14.65;46.92;100029.69;4397668;32;35920;-77
2021/05/04 07:00:22;;;;;;;;;;;;;;;14.51;46.19;100032.97;4408576;32;34015;-78
2021/05/04 07:02:49;;;;;;;;;;;;;;;14.23;45.65;100036.91;4406257;32;33300;-77
2021/05/04 07:05:17;;;;;;;;;;;;;;;14.67;46.20;100035.72;4406627;32;31631;-77
2021/05/04 07:07:44;;;;;;;;;;;;;;;14.77;44.40;100034.53;4419169;32;34141;-78
2021/05/04 07:10:15;;;;;;;;;;;;;;;15.09;44.04;100031.06;4426019;32;33429;-77
2021/05/04 07:12:42;;;;;;;;;;;;;;;15.10;44.70;100030.03;4415388;32;34925;-76
2021/05/04 07:15:10;;;;;;;;;;;;;;;15.17;44.73;100037.28;4406333;32;33225;-77
2021/05/04 07:17:56;;;;;;;;;;;;;;;15.30;45.31;100037.63;4382891;32;32372;-77
2021/05/04 07:20:23;;;;;;;;;;;;;;;15.24;44.99;100037.44;4423121;32;34510;-76
2021/05/04 07:22:55;;;;;;;;;;;;;;;15.56;42.88;100034.75;4412935;32;34467;-76
2021/05/04 07:25:23;;;;;;;;;;;;;;;15.62;43.13;100032.25;4405080;32;33106;-77
2021/05/04 07:27:52;;;;;;;;;;;;;;;15.78;42.99;100021.44;4421736;32;33915;-77
2021/05/04 07:30:19;;;;;;;;;;;;;;;15.75;44.10;100029.00;4406590;32;35593;-78
2021/05/04 07:32:46;;;;;;;;;;;;;;;15.96;42.78;100022.06;4403524;32;35093;-76
2021/05/04 07:35:14;;;;;;;;;;;;;;;15.86;41.32;100023.28;4411540;32;32230;-77
2021/05/04 07:37:41;;;;;;;;;;;;;;;15.55;40.74;100023.19;4402779;32;33920;-75
2021/05/04 07:40:09;;;;;;;;;;;;;;;15.62;42.02;100021.50;4399434;32;33513;-76
2021/05/04 07:42:36;;;;;;;;;;;;;;;15.67;41.59;100019.13;4421135;32;34623;-76
2021/05/04 07:45:03;;;;;;;;;;;;;;;15.71;41.82;100016.97;4398229;32;33022;-76
2021/05/04 07:47:30;;;;;;;;;;;;;;;15.62;41.34;100001.88;4418231;32;33496;-76
2021/05/04 07:49:58;;;;;;;;;;;;;;;15.87;41.45;100000.81;4406605;32;35072;-76
2021/05/04 07:52:25;;;;;;;;;;;;;;;15.89;41.56;100006.84;4400933;32;34415;-77
2021/05/04 07:54:52;;;;;;;;;;;;;;;16.16;40.76;100001.03;4413941;32;33003;-76
2021/05/04 07:57:19;;;;;;;;;;;;;;;15.92;40.29;99991.25;4425037;32;34004;-76
2021/05/04 07:59:46;;;;;;;;;;;;;;;15.79;39.06;99992.78;4423331;32;34896;-76
2021/05/04 08:02:13;;;;;;;;;;;;;;;16.09;38.69;99990.16;4418452;32;35272;-76
2021/05/04 08:04:42;;;;;;;;;;;;;;;16.37;39.12;99988.72;4404206;32;31874;-76
2021/05/04 08:07:08;;;;;;;;;;;;;;;16.50;38.71;99985.47;4422267;32;33886;-75
2021/05/04 08:09:36;;;;;;;;;;;;;;;16.32;39.41;99987.53;4396552;32;33397;-76
2021/05/04 08:12:04;;;;;;;;;;;;;;;16.88;37.99;99968.41;4421147;32;34321;-76
2021/05/04 08:14:33;;;;;;;;;;;;;;;16.59;38.04;99974.47;4411938;32;32494;-76
2021/05/04 08:17:10;;;;;;;;;;;;;;;16.62;37.22;99968.72;4404923;32;34020;-77
2021/05/04 08:19:37;;;;;;;;;;;;;;;17.04;38.71;99957.50;4400989;32;34598;-76
2021/05/04 08:22:04;;;;;;;;;;;;;;;17.03;36.97;99962.06;4393757;32;34109;-77
2021/05/04 08:24:31;;;;;;;;;;;;;;;17.13;37.54;99949.19;4386129;32;33323;-76
2021/05/04 08:26:59;;;;;;;;;;;;;;;17.30;35.99;99950.72;4406518;32;33744;-76
2021/05/04 08:29:26;;;;;;;;;;;;;;;17.26;37.28;99965.53;4419444;32;34687;-76
2021/05/04 08:31:52;;;;;;;;;;;;;;;17.12;36.20;99954.75;4412247;32;34502;-76
2021/05/04 08:34:21;;;;;;;;;;;;;;;17.29;35.75;99958.94;4420466;32;33128;-76
2021/05/04 08:36:48;;;;;;;;;;;;;;;16.99;36.11;99951.84;4427434;32;35150;-74
2021/05/04 08:39:15;;;;;;;;;;;;;;;17.17;36.26;99958.56;4410910;32;33560;-74
2021/05/04 08:41:45;;;;;;;;;;;;;;;16.77;35.79;99933.88;4409513;32;34384;-75
2021/05/04 08:44:16;;;;;;;;;;;;;;;16.95;35.29;99945.13;4404542;32;33031;-74
2021/05/04 08:46:48;;;;;;;;;;;;;;;17.13;35.13;99951.03;4401735;32;34013;-75
2021/05/04 08:49:16;;;;;;;;;;;;;;;17.33;36.79;99949.50;4396918;32;34250;-75
2021/05/04 08:51:44;;;;;;;;;;;;;;;17.57;36.31;99947.44;4414199;32;34069;-75
2021/05/04 08:54:11;;;;;;;;;;;;;;;17.44;34.77;99949.91;4417866;32;32534;-76
2021/05/04 08:56:40;;;;;;;;;;;;;;;17.16;34.62;99938.06;4414674;32;33799;-76
2021/05/04 08:59:08;;;;;;;;;;;;;;;17.49;35.30;99934.88;4421891;32;34830;-77
2021/05/04 09:01:35;;;;;;;;;;;;;;;17.67;33.99;99931.84;4419903;32;35304;-76
2021/05/04 09:04:09;;;;;;;;;;;;;;;17.84;33.83;99926.06;4417678;32;33329;-76
2021/05/04 09:06:41;;;;;;;;;;;;;;;18.12;34.51;99924.34;4413693;32;33259;-76
2021/05/04 09:09:35;;;;;;;;;;;;;;;18.24;33.68;99917.44;4402505;32;35257;-74
2021/05/04 09:17:16;;;;;;;;;;;;;;;18.34;32.06;99909.09;4418199;32;33655;-75
2021/05/04 09:22:16;;;;;;;;;;;;;;;18.44;32.02;99909.63;4406032;32;34338;-75
2021/05/04 09:24:44;;;;;;;;;;;;;;;18.22;33.11;99905.22;4397239;32;33314;-76
2021/05/04 09:27:14;;;;;;;;;;;;;;;18.26;31.87;99899.25;4391046;32;33729;-75
2021/05/04 09:29:44;;;;;;;;;;;;;;;18.23;32.64;99885.34;4425865;32;35681;-76
2021/05/04 09:32:11;;;;;;;;;;;;;;;18.44;30.94;99888.06;4408597;32;35518;-75
2021/05/04 09:34:58;;;;;;;;;;;;;;;18.35;31.09;99881.16;4429204;32;32946;-76
2021/05/04 09:37:30;;;;;;;;;;;;;;;18.91;31.27;99875.69;4414614;32;33421;-76
2021/05/04 09:40:15;;;;;;;;;;;;;;;18.58;31.29;99873.69;4407700;32;34914;-75
2021/05/04 09:43:06;;;;;;;;;;;;;;;18.57;31.03;99872.03;4421015;32;34644;-76
2021/05/04 09:45:35;;;;;;;;;;;;;;;19.06;31.43;99872.88;4424002;32;32354;-76
2021/05/04 09:48:12;;;;;;;;;;;;;;;19.08;30.77;99868.94;4400382;32;33832;-77
2021/05/04 09:50:46;;;;;;;;;;;;;;;18.98;31.06;99865.75;4419544;32;34863;-77
2021/05/04 09:53:14;;;;;;;;;;;;;;;18.97;30.67;99860.56;4422522;32;32952;-75
2021/05/04 09:56:11;;;;;;;;;;;;;;;18.88;29.68;99853.66;4423825;32;33447;-77
2021/05/04 09:58:39;;;;;;;;;;;;;;;19.43;31.30;99850.94;4402895;32;33258;-78
2021/05/04 10:01:09;;;;;;;;;;;;;;;19.50;29.10;99839.16;4406615;32;34249;-78
2021/05/04 10:03:37;;;;;;;;;;;;;;;19.60;30.28;99845.00;4390873;32;33981;-78
2021/05/04 10:06:05;;;;;;;;;;;;;;;19.61;30.12;99835.03;4403210;32;33526;-78
2021/05/04 10:08:33;;;;;;;;;;;;;;;19.74;30.47;99835.09;4411174;32;32412;-79
2021/05/04 10:11:01;;;;;;;;;;;;;;;20.15;28.76;99834.03;4392850;32;34541;-78
2021/05/04 10:13:29;;;;;;;;;;;;;;;20.24;29.37;99840.06;4411520;32;32490;-76
2021/05/04 10:15:56;;;;;;;;;;;;;;;19.56;30.48;99864.50;4420230;32;32704;-78
2021/05/04 10:18:24;;;;;;;;;;;;;;;19.53;30.52;99827.94;4416715;32;34199;-78
2021/05/04 10:20:52;;;;;;;;;;;;;;;20.09;30.77;99804.31;4402208;32;35121;-77
2021/05/04 10:23:19;;;;;;;;;;;;;;;20.31;31.88;99817.44;4416442;32;34775;-78
2021/05/04 10:25:47;;;;;;;;;;;;;;;20.50;28.77;99811.22;4415492;32;33892;-77
2021/05/04 10:28:14;;;;;;;;;;;;;;;20.29;28.74;99799.78;4404899;32;34724;-78
2021/05/04 10:30:41;;;;;;;;;;;;;;;20.22;28.75;99801.63;4396511;32;35846;-77
2021/05/04 10:33:10;;;;;;;;;;;;;;;20.38;28.98;99799.34;4388780;32;34366;-78
2021/05/04 10:35:46;;;;;;;;;;;;;;;20.65;28.89;99796.47;4410027;32;32978;-78
2021/05/04 10:38:14;;;;;;;;;;;;;;;21.00;27.87;99779.00;4421367;32;33933;-79
2021/05/04 10:40:43;;;;;;;;;;;;;;;21.39;29.09;99778.88;4402040;32;34583;-78
2021/05/04 10:43:21;;;;;;;;;;;;;;;21.48;28.92;99776.75;4418445;32;34309;-77
2021/05/04 10:45:57;;;;;;;;;;;;;;;21.27;28.45;99766.22;4424830;32;34166;-78
2021/05/04 10:48:44;;;;;;;;;;;;;;;21.85;28.76;99768.69;4420660;32;33842;-78
2021/05/04 10:51:13;;;;;;;;;;;;;;;21.64;26.83;99752.75;4421139;32;35486;-78
2021/05/04 10:53:48;;;;;;;;;;;;;;;21.29;27.43;99750.59;4401911;32;35481;-78
2021/05/04 10:56:15;;;;;;;;;;;;;;;21.54;27.10;99748.84;4401863;32;31625;-78
2021/05/04 10:58:47;;;;;;;;;;;;;;;22.41;25.16;99744.38;4413013;32;33864;-78
2021/05/04 11:01:20;;;;;;;;;;;;;;;23.02;24.22;99750.69;4417670;32;35583;-76
2021/05/04 11:03:48;;;;;;;;;;;;;;;23.55;23.67;99720.00;4413950;32;34451;-76
2021/05/04 11:06:24;;;;;;;;;;;;;;;23.75;24.16;99722.47;4415576;32;33571;-77
2021/05/04 11:08:51;;;;;;;;;;;;;;;24.40;22.40;99723.12;4409654;32;33837;-75
2021/05/04 11:11:22;;;;;;;;;;;;;;;24.69;23.10;99727.69;4396760;32;33626;-77
2021/05/04 11:13:53;;;;;;;;;;;;;;;25.83;22.69;99716.78;4413177;32;32676;-76
2021/05/04 11:16:35;;;;;;;;;;;;;;;24.97;22.48;99710.63;4401723;32;31641;-75
2021/05/04 11:19:04;;;;;;;;;;;;;;;24.85;22.03;99723.41;4413874;32;33788;-76
2021/05/04 11:21:40;;;;;;;;;;;;;;;24.59;22.88;99708.41;4419002;32;34634;-76
2021/05/04 11:24:11;;;;;;;;;;;;;;;24.50;22.52;99698.06;4421266;32;34904;-76
2021/05/04 11:26:52;;;;;;;;;;;;;;;24.32;22.12;99695.44;4388741;32;31257;-76
2021/05/04 11:29:19;;;;;;;;;;;;;;;24.61;22.01;99700.81;4420292;32;33630;-76
2021/05/04 11:31:48;;;;;;;;;;;;;;;24.87;21.69;99710.38;4416992;32;34460;-75
2021/05/04 11:34:34;;;;;;;;;;;;;;;24.76;21.66;99705.78;4404788;32;33746;-75
2021/05/04 11:37:02;;;;;;;;;;;;;;;25.03;22.72;99693.34;4408639;32;33293;-75
2021/05/04 11:39:29;;;;;;;;;;;;;;;25.32;20.94;99681.47;4415517;32;34472;-76
2021/05/04 11:41:56;;;;;;;;;;;;;;;25.51;20.59;99674.75;4421922;32;36349;-75
2021/05/04 11:44:26;;;;;;;;;;;;;;;24.05;21.98;99686.91;4411163;32;34322;-77
2021/05/04 11:46:54;;;;;;;;;;;;;;;23.98;22.28;99669.84;4422457;32;33211;-77
2021/05/04 11:49:24;;;;;;;;;;;;;;;24.25;21.50;99664.81;4418075;32;33337;-76
2021/05/04 11:52:07;;;;;;;;;;;;;;;25.01;21.24;99665.53;4400728;32;33966;-77
2021/05/04 11:54:35;;;;;;;;;;;;;;;24.93;20.06;99661.28;4411372;32;33455;-76
2021/05/04 11:57:03;;;;;;;;;;;;;;;24.46;21.03;99658.81;4403934;32;32500;-76
2021/05/04 11:59:52;;;;;;;;;;;;;;;24.40;20.48;99668.75;4399878;32;33400;-77
2021/05/04 12:02:28;;;;;;;;;;;;;;;24.40;20.82;99646.16;4404858;32;35554;-77
2021/05/04 12:04:56;;;;;;;;;;;;;;;24.81;20.93;99648.75;4418822;32;35137;-76
2021/05/04 12:07:33;;;;;;;;;;;;;;;25.68;21.11;99646.47;4396306;32;34419;-76
2021/05/04 12:10:01;;;;;;;;;;;;;;;24.54;20.50;99647.62;4405251;32;33251;-76
2021/05/04 12:12:43;;;;;;;;;;;;;;;25.03;20.20;99634.25;4404876;32;35482;-78
2021/05/04 12:15:13;;;;;;;;;;;;;;;25.29;20.71;99635.66;4403403;32;33463;-76
2021/05/04 12:17:40;;;;;;;;;;;;;;;25.31;20.17;99644.41;4424549;32;33482;-78
2021/05/04 12:20:11;;;;;;;;;;;;;;;25.20;21.45;99629.72;4410018;32;32042;-76
2021/05/04 12:22:44;;;;;;;;;;;;;;;25.76;20.77;99624.28;4415926;32;34810;-76
2021/05/04 12:25:11;;;;;;;;;;;;;;;25.95;19.33;99614.81;4413482;32;32914;-76
2021/05/04 12:27:38;;;;;;;;;;;;;;;24.86;20.16;99616.22;4407611;32;32815;-76
2021/05/04 12:30:09;;;;;;;;;;;;;;;24.94;20.10;99600.31;4406656;32;33330;-77
2021/05/04 12:32:37;;;;;;;;;;;;;;;25.60;20.68;99606.00;4393542;32;33545;-78
2021/05/04 12:35:48;;;;;;;;;;;;;;;25.43;19.98;99591.53;4395675;32;32970;-76
2021/05/04 12:39:17;;;;;;;;;;;;;;;23.62;20.14;99589.53;4407739;32;33457;-76
2021/05/04 12:41:51;;;;;;;;;;;;;;;24.36;23.40;99594.12;4409341;32;33739;-77
2021/05/04 12:44:29;;;;;;;;;;;;;;;23.95;21.25;99599.69;4385343;32;34863;-77
2021/05/04 12:46:59;;;;;;;;;;;;;;;24.31;21.18;99568.72;4397428;32;34353;-77
2021/05/04 12:49:33;;;;;;;;;;;;;;;23.76;21.28;99580.13;4411594;32;32725;-77
2021/05/04 12:52:06;;;;;;;;;;;;;;;24.61;21.11;99562.09;4411321;32;33844;-77
2021/05/04 12:54:35;;;;;;;;;;;;;;;24.28;20.19;99561.84;4413211;32;35238;-78
2021/05/04 12:57:15;;;;;;;;;;;;;;;25.07;20.97;99555.66;4413474;32;36559;-78
2021/05/04 12:59:43;;;;;;;;;;;;;;;24.53;20.66;99548.81;4398077;32;32552;-78
2021/05/04 13:02:18;;;;;;;;;;;;;;;25.82;20.79;99548.88;4398924;32;33689;-76
2021/05/04 13:07:33;;;;;;;;;;;;;;;25.45;19.06;99529.47;4414838;32;34368;-77